Terminal Aerodrome Forecast
Issued by NWS

Home | Current Version | Previous Version | Text Only | Print | Product List | Glossary On
Versions: 1 2 3 4 5 6 7 8 9 10 11 12 13 14 15 16 17
000
FTUS46 KPDT 201720
TAFALW
TAF
KALW 201720Z 2018/2118 VRB05KT 5SM -SHRA BR SCT001 BKN080
     FM202000 14008G16KT P6SM -SHRA OVC060
     FM210100 15006KT P6SM -SHRA OVC050=

USA.gov is the U.S. government's official web portal to all federal, state and local government web resources and services.